sensor_id;sensor_type;location;lat;lon;timestamp;P1;durP1;ratioP1;P2;durP2;ratioP2
22332;SDS011;11334;36.986;-121.936;2022-07-29T00:01:00;1.67;;;1.27;;
22332;SDS011;11334;36.986;-121.936;2022-07-29T00:03:26;1.83;;;1.00;;
22332;SDS011;11334;36.986;-121.936;2022-07-29T00:05:52;3.72;;;1.10;;
22332;SDS011;11334;36.986;-121.936;2022-07-29T00:08:19;2.35;;;1.00;;
22332;SDS011;11334;36.986;-121.936;2022-07-29T00:10:45;4.03;;;1.17;;
22332;SDS011;11334;36.986;-121.936;2022-07-29T00:13:11;5.75;;;1.38;;
22332;SDS011;11334;36.986;-121.936;2022-07-29T00:15:37;3.58;;;0.90;;
22332;SDS011;11334;36.986;-121.936;2022-07-29T00:18:04;3.97;;;1.42;;
22332;SDS011;11334;36.986;-121.936;2022-07-29T00:20:30;2.75;;;0.90;;
22332;SDS011;11334;36.986;-121.936;2022-07-29T00:22:56;3.30;;;1.27;;
22332;SDS011;11334;36.986;-121.936;2022-07-29T00:25:22;3.83;;;1.05;;
22332;SDS011;11334;36.986;-121.936;2022-07-29T00:27:49;5.65;;;1.30;;
22332;SDS011;11334;36.986;-121.936;2022-07-29T00:30:15;3.83;;;1.30;;
22332;SDS011;11334;36.986;-121.936;2022-07-29T00:32:41;5.32;;;1.30;;
22332;SDS011;11334;36.986;-121.936;2022-07-29T00:35:08;4.18;;;1.20;;
22332;SDS011;11334;36.986;-121.936;2022-07-29T00:37:52;3.65;;;1.38;;
22332;SDS011;11334;36.986;-121.936;2022-07-29T00:40:19;4.18;;;1.55;;
22332;SDS011;11334;36.986;-121.936;2022-07-29T00:42:48;3.80;;;1.35;;
22332;SDS011;11334;36.986;-121.936;2022-07-29T00:45:16;8.30;;;2.00;;
22332;SDS011;11334;36.986;-121.936;2022-07-29T00:47:44;3.97;;;1.55;;
22332;SDS011;11334;36.986;-121.936;2022-07-29T00:50:11;4.43;;;1.27;;
22332;SDS011;11334;36.986;-121.936;2022-07-29T00:52:38;4.85;;;1.35;;
22332;SDS011;11334;36.986;-121.936;2022-07-29T00:55:08;3.85;;;0.82;;
22332;SDS011;11334;36.986;-121.936;2022-07-29T00:57:39;5.30;;;1.45;;
22332;SDS011;11334;36.986;-121.936;2022-07-29T01:00:07;1.92;;;1.23;;
22332;SDS011;11334;36.986;-121.936;2022-07-29T01:02:36;3.58;;;1.50;;
22332;SDS011;11334;36.986;-121.936;2022-07-29T01:05:03;2.78;;;1.30;;
22332;SDS011;11334;36.986;-121.936;2022-07-29T01:07:31;2.88;;;1.13;;
22332;SDS011;11334;36.986;-121.936;2022-07-29T01:10:02;4.28;;;2.03;;
22332;SDS011;11334;36.986;-121.936;2022-07-29T01:12:30;8.05;;;2.08;;
22332;SDS011;11334;36.986;-121.936;2022-07-29T01:14:58;5.72;;;1.80;;
22332;SDS011;11334;36.986;-121.936;2022-07-29T01:17:28;3.83;;;1.63;;
22332;SDS011;11334;36.986;-121.936;2022-07-29T01:26:18;9.10;;;1.77;;
22332;SDS011;11334;36.986;-121.936;2022-07-29T01:31:47;4.75;;;1.48;;
22332;SDS011;11334;36.986;-121.936;2022-07-29T01:34:23;3.30;;;1.25;;
22332;SDS011;11334;36.986;-121.936;2022-07-29T01:37:05;6.05;;;1.60;;
22332;SDS011;11334;36.986;-121.936;2022-07-29T01:39:45;8.85;;;1.67;;
22332;SDS011;11334;36.986;-121.936;2022-07-29T01:42:15;4.07;;;1.52;;
22332;SDS011;11334;36.986;-121.936;2022-07-29T01:47:25;4.85;;;1.10;;
22332;SDS011;11334;36.986;-121.936;2022-07-29T01:49:57;3.83;;;1.13;;
22332;SDS011;11334;36.986;-121.936;2022-07-29T01:52:34;5.57;;;1.52;;
22332;SDS011;11334;36.986;-121.936;2022-07-29T01:55:23;1.92;;;1.13;;
22332;SDS011;11334;36.986;-121.936;2022-07-29T01:57:54;3.40;;;1.40;;
22332;SDS011;11334;36.986;-121.936;2022-07-29T02:00:23;4.78;;;1.40;;
22332;SDS011;11334;36.986;-121.936;2022-07-29T02:02:50;2.33;;;1.27;;
22332;SDS011;11334;36.986;-121.936;2022-07-29T02:05:18;5.57;;;1.30;;
22332;SDS011;11334;36.986;-121.936;2022-07-29T02:07:47;3.40;;;1.17;;
22332;SDS011;11334;36.986;-121.936;2022-07-29T02:10:16;3.67;;;0.90;;
22332;SDS011;11334;36.986;-121.936;2022-07-29T02:12:46;6.13;;;1.38;;
22332;SDS011;11334;36.986;-121.936;2022-07-29T02:15:14;1.83;;;1.10;;
22332;SDS011;11334;36.986;-121.936;2022-07-29T02:17:43;1.80;;;0.95;;
22332;SDS011;11334;36.986;-121.936;2022-07-29T02:20:14;1.65;;;1.15;;
22332;SDS011;11334;36.986;-121.936;2022-07-29T02:22:42;3.17;;;1.35;;
22332;SDS011;11334;36.986;-121.936;2022-07-29T02:25:10;2.05;;;1.05;;
22332;SDS011;11334;36.986;-121.936;2022-07-29T02:27:37;3.72;;;1.30;;
22332;SDS011;11334;36.986;-121.936;2022-07-29T02:30:06;3.78;;;1.25;;
22332;SDS011;11334;36.986;-121.936;2022-07-29T02:32:35;3.15;;;1.20;;
22332;SDS011;11334;36.986;-121.936;2022-07-29T02:35:05;3.80;;;1.30;;
22332;SDS011;11334;36.986;-121.936;2022-07-29T02:37:35;3.90;;;1.60;;
22332;SDS011;11334;36.986;-121.936;2022-07-29T02:40:03;6.10;;;1.60;;
22332;SDS011;11334;36.986;-121.936;2022-07-29T02:42:31;3.35;;;1.40;;
22332;SDS011;11334;36.986;-121.936;2022-07-29T02:44:59;3.25;;;1.67;;
22332;SDS011;11334;36.986;-121.936;2022-07-29T02:47:31;5.78;;;1.58;;
22332;SDS011;11334;36.986;-121.936;2022-07-29T02:50:09;8.10;;;2.10;;
22332;SDS011;11334;36.986;-121.936;2022-07-29T02:52:54;5.25;;;1.40;;
22332;SDS011;11334;36.986;-121.936;2022-07-29T02:55:40;7.07;;;1.70;;
22332;SDS011;11334;36.986;-121.936;2022-07-29T03:01:12;5.72;;;2.00;;
22332;SDS011;11334;36.986;-121.936;2022-07-29T03:03:46;3.60;;;1.33;;
22332;SDS011;11334;36.986;-121.936;2022-07-29T03:06:17;3.90;;;1.60;;
22332;SDS011;11334;36.986;-121.936;2022-07-29T03:08:44;2.08;;;1.10;;
22332;SDS011;11334;36.986;-121.936;2022-07-29T03:11:12;5.30;;;1.45;;
22332;SDS011;11334;36.986;-121.936;2022-07-29T03:13:39;3.50;;;1.50;;
22332;SDS011;11334;36.986;-121.936;2022-07-29T03:16:05;3.17;;;1.50;;
22332;SDS011;11334;36.986;-121.936;2022-07-29T03:18:33;3.67;;;1.45;;
22332;SDS011;11334;36.986;-121.936;2022-07-29T03:21:00;4.82;;;2.50;;
22332;SDS011;11334;36.986;-121.936;2022-07-29T03:23:27;6.88;;;2.60;;
22332;SDS011;11334;36.986;-121.936;2022-07-29T03:25:53;5.88;;;2.45;;
22332;SDS011;11334;36.986;-121.936;2022-07-29T03:28:20;9.73;;;3.15;;
22332;SDS011;11334;36.986;-121.936;2022-07-29T03:30:47;8.32;;;3.15;;
22332;SDS011;11334;36.986;-121.936;2022-07-29T03:33:13;10.38;;;2.70;;
22332;SDS011;11334;36.986;-121.936;2022-07-29T03:35:40;7.07;;;2.30;;
22332;SDS011;11334;36.986;-121.936;2022-07-29T03:38:06;6.40;;;2.17;;
22332;SDS011;11334;36.986;-121.936;2022-07-29T03:40:34;4.55;;;2.15;;
22332;SDS011;11334;36.986;-121.936;2022-07-29T03:43:04;6.20;;;1.80;;
22332;SDS011;11334;36.986;-121.936;2022-07-29T03:45:33;7.57;;;2.15;;
22332;SDS011;11334;36.986;-121.936;2022-07-29T03:48:07;11.82;;;2.10;;
22332;SDS011;11334;36.986;-121.936;2022-07-29T03:50:35;7.85;;;2.17;;
22332;SDS011;11334;36.986;-121.936;2022-07-29T03:53:02;6.78;;;1.98;;
22332;SDS011;11334;36.986;-121.936;2022-07-29T03:55:29;7.93;;;2.17;;
22332;SDS011;11334;36.986;-121.936;2022-07-29T03:58:01;6.30;;;2.20;;
22332;SDS011;11334;36.986;-121.936;2022-07-29T04:00:28;3.83;;;1.60;;
22332;SDS011;11334;36.986;-121.936;2022-07-29T04:02:56;11.63;;;2.13;;
22332;SDS011;11334;36.986;-121.936;2022-07-29T04:05:23;7.70;;;2.25;;
22332;SDS011;11334;36.986;-121.936;2022-07-29T04:07:49;8.23;;;2.15;;
22332;SDS011;11334;36.986;-121.936;2022-07-29T04:10:15;5.47;;;2.10;;
22332;SDS011;11334;36.986;-121.936;2022-07-29T04:12:42;4.75;;;2.53;;
22332;SDS011;11334;36.986;-121.936;2022-07-29T04:15:09;7.53;;;2.35;;
22332;SDS011;11334;36.986;-121.936;2022-07-29T04:17:36;3.70;;;1.98;;
22332;SDS011;11334;36.986;-121.936;2022-07-29T04:20:02;11.60;;;2.60;;
22332;SDS011;11334;36.986;-121.936;2022-07-29T04:22:29;7.07;;;2.60;;
22332;SDS011;11334;36.986;-121.936;2022-07-29T04:24:56;7.40;;;2.42;;
22332;SDS011;11334;36.986;-121.936;2022-07-29T04:27:22;7.28;;;2.35;;
22332;SDS011;11334;36.986;-121.936;2022-07-29T04:29:49;6.45;;;2.60;;
22332;SDS011;11334;36.986;-121.936;2022-07-29T04:32:15;8.43;;;2.67;;
22332;SDS011;11334;36.986;-121.936;2022-07-29T04:34:41;5.63;;;2.40;;
22332;SDS011;11334;36.986;-121.936;2022-07-29T04:37:07;7.28;;;2.60;;
22332;SDS011;11334;36.986;-121.936;2022-07-29T04:39:34;7.28;;;2.38;;
22332;SDS011;11334;36.986;-121.936;2022-07-29T04:42:00;7.85;;;2.35;;
22332;SDS011;11334;36.986;-121.936;2022-07-29T04:44:26;9.52;;;2.42;;
22332;SDS011;11334;36.986;-121.936;2022-07-29T04:46:53;3.85;;;1.98;;
22332;SDS011;11334;36.986;-121.936;2022-07-29T04:49:19;6.35;;;2.10;;
22332;SDS011;11334;36.986;-121.936;2022-07-29T04:51:45;6.88;;;2.35;;
22332;SDS011;11334;36.986;-121.936;2022-07-29T04:54:12;4.88;;;1.80;;
22332;SDS011;11334;36.986;-121.936;2022-07-29T04:56:38;4.40;;;1.77;;
22332;SDS011;11334;36.986;-121.936;2022-07-29T04:59:04;9.73;;;2.40;;
22332;SDS011;11334;36.986;-121.936;2022-07-29T05:01:30;5.50;;;2.17;;
22332;SDS011;11334;36.986;-121.936;2022-07-29T05:03:56;8.45;;;2.03;;
22332;SDS011;11334;36.986;-121.936;2022-07-29T05:06:23;3.92;;;1.58;;
22332;SDS011;11334;36.986;-121.936;2022-07-29T05:08:49;6.47;;;1.60;;
22332;SDS011;11334;36.986;-121.936;2022-07-29T05:11:15;4.65;;;1.92;;
22332;SDS011;11334;36.986;-121.936;2022-07-29T05:13:41;7.18;;;1.65;;
22332;SDS011;11334;36.986;-121.936;2022-07-29T05:16:07;4.75;;;1.40;;
22332;SDS011;11334;36.986;-121.936;2022-07-29T05:18:34;7.00;;;1.73;;
22332;SDS011;11334;36.986;-121.936;2022-07-29T05:21:00;4.45;;;1.60;;
22332;SDS011;11334;36.986;-121.936;2022-07-29T05:23:26;7.53;;;1.77;;
22332;SDS011;11334;36.986;-121.936;2022-07-29T05:25:53;7.90;;;2.22;;
22332;SDS011;11334;36.986;-121.936;2022-07-29T05:28:19;6.95;;;1.73;;
22332;SDS011;11334;36.986;-121.936;2022-07-29T05:30:46;2.78;;;1.48;;
22332;SDS011;11334;36.986;-121.936;2022-07-29T05:33:12;9.75;;;2.38;;
22332;SDS011;11334;36.986;-121.936;2022-07-29T05:35:38;8.25;;;1.90;;
22332;SDS011;11334;36.986;-121.936;2022-07-29T05:38:04;4.20;;;1.58;;
22332;SDS011;11334;36.986;-121.936;2022-07-29T05:40:30;2.92;;;1.58;;
22332;SDS011;11334;36.986;-121.936;2022-07-29T05:42:57;9.25;;;2.05;;
22332;SDS011;11334;36.986;-121.936;2022-07-29T05:45:23;4.15;;;1.75;;
22332;SDS011;11334;36.986;-121.936;2022-07-29T05:47:49;5.95;;;1.67;;
22332;SDS011;11334;36.986;-121.936;2022-07-29T05:50:16;5.57;;;1.92;;
22332;SDS011;11334;36.986;-121.936;2022-07-29T05:52:42;3.13;;;1.40;;
22332;SDS011;11334;36.986;-121.936;2022-07-29T05:55:08;4.88;;;1.58;;
22332;SDS011;11334;36.986;-121.936;2022-07-29T05:57:35;7.70;;;1.80;;
22332;SDS011;11334;36.986;-121.936;2022-07-29T06:00:01;6.60;;;2.50;;
22332;SDS011;11334;36.986;-121.936;2022-07-29T06:02:28;4.63;;;1.65;;
22332;SDS011;11334;36.986;-121.936;2022-07-29T06:04:54;7.93;;;2.20;;
22332;SDS011;11334;36.986;-121.936;2022-07-29T06:07:21;6.43;;;2.22;;
22332;SDS011;11334;36.986;-121.936;2022-07-29T06:09:47;5.35;;;2.00;;
22332;SDS011;11334;36.986;-121.936;2022-07-29T06:12:13;7.10;;;2.05;;
22332;SDS011;11334;36.986;-121.936;2022-07-29T06:14:39;4.20;;;1.67;;
22332;SDS011;11334;36.986;-121.936;2022-07-29T06:17:05;3.35;;;1.38;;
22332;SDS011;11334;36.986;-121.936;2022-07-29T06:19:33;4.50;;;1.60;;
22332;SDS011;11334;36.986;-121.936;2022-07-29T06:22:01;4.68;;;1.80;;
22332;SDS011;11334;36.986;-121.936;2022-07-29T06:24:27;3.58;;;1.75;;
22332;SDS011;11334;36.986;-121.936;2022-07-29T06:26:54;6.70;;;1.77;;
22332;SDS011;11334;36.986;-121.936;2022-07-29T06:29:21;6.57;;;2.08;;
22332;SDS011;11334;36.986;-121.936;2022-07-29T06:31:47;5.13;;;2.00;;
22332;SDS011;11334;36.986;-121.936;2022-07-29T06:34:13;7.50;;;2.22;;
22332;SDS011;11334;36.986;-121.936;2022-07-29T06:36:40;5.95;;;2.13;;
22332;SDS011;11334;36.986;-121.936;2022-07-29T06:39:07;7.35;;;2.45;;
22332;SDS011;11334;36.986;-121.936;2022-07-29T06:41:33;6.97;;;2.35;;
22332;SDS011;11334;36.986;-121.936;2022-07-29T06:44:00;8.30;;;2.80;;
22332;SDS011;11334;36.986;-121.936;2022-07-29T06:46:26;7.70;;;2.45;;
22332;SDS011;11334;36.986;-121.936;2022-07-29T06:48:53;8.70;;;2.50;;
22332;SDS011;11334;36.986;-121.936;2022-07-29T06:51:20;7.15;;;2.60;;
22332;SDS011;11334;36.986;-121.936;2022-07-29T06:53:47;9.85;;;2.67;;
22332;SDS011;11334;36.986;-121.936;2022-07-29T06:56:13;4.35;;;2.10;;
22332;SDS011;11334;36.986;-121.936;2022-07-29T06:58:39;7.72;;;2.60;;
22332;SDS011;11334;36.986;-121.936;2022-07-29T07:01:06;7.18;;;2.60;;
22332;SDS011;11334;36.986;-121.936;2022-07-29T07:03:32;9.95;;;2.42;;
22332;SDS011;11334;36.986;-121.936;2022-07-29T07:05:59;6.93;;;2.28;;
22332;SDS011;11334;36.986;-121.936;2022-07-29T07:08:25;4.20;;;2.30;;
22332;SDS011;11334;36.986;-121.936;2022-07-29T07:10:51;7.70;;;2.72;;
22332;SDS011;11334;36.986;-121.936;2022-07-29T07:13:18;12.75;;;2.67;;
22332;SDS011;11334;36.986;-121.936;2022-07-29T07:15:45;5.20;;;2.42;;
22332;SDS011;11334;36.986;-121.936;2022-07-29T07:18:13;4.32;;;2.60;;
22332;SDS011;11334;36.986;-121.936;2022-07-29T07:20:40;4.88;;;2.80;;
22332;SDS011;11334;36.986;-121.936;2022-07-29T07:23:07;4.40;;;2.22;;
22332;SDS011;11334;36.986;-121.936;2022-07-29T07:25:33;4.15;;;2.15;;
22332;SDS011;11334;36.986;-121.936;2022-07-29T07:28:00;7.15;;;2.50;;
22332;SDS011;11334;36.986;-121.936;2022-07-29T07:30:26;9.43;;;2.80;;
22332;SDS011;11334;36.986;-121.936;2022-07-29T07:32:53;9.55;;;2.10;;
22332;SDS011;11334;36.986;-121.936;2022-07-29T07:35:20;5.00;;;2.35;;
22332;SDS011;11334;36.986;-121.936;2022-07-29T07:37:46;3.65;;;2.10;;
22332;SDS011;11334;36.986;-121.936;2022-07-29T07:40:13;8.43;;;2.70;;
22332;SDS011;11334;36.986;-121.936;2022-07-29T07:42:40;5.75;;;2.28;;
22332;SDS011;11334;36.986;-121.936;2022-07-29T07:45:07;6.22;;;2.33;;
22332;SDS011;11334;36.986;-121.936;2022-07-29T07:47:37;5.55;;;2.30;;
22332;SDS011;11334;36.986;-121.936;2022-07-29T07:50:04;5.80;;;2.30;;
22332;SDS011;11334;36.986;-121.936;2022-07-29T07:52:32;5.28;;;2.33;;
22332;SDS011;11334;36.986;-121.936;2022-07-29T07:54:59;3.88;;;2.00;;
22332;SDS011;11334;36.986;-121.936;2022-07-29T07:57:25;4.93;;;2.35;;
22332;SDS011;11334;36.986;-121.936;2022-07-29T07:59:51;8.90;;;2.50;;
22332;SDS011;11334;36.986;-121.936;2022-07-29T08:02:17;11.15;;;2.70;;
22332;SDS011;11334;36.986;-121.936;2022-07-29T08:04:44;7.82;;;2.97;;
22332;SDS011;11334;36.986;-121.936;2022-07-29T08:07:10;5.85;;;2.25;;
22332;SDS011;11334;36.986;-121.936;2022-07-29T08:09:36;5.03;;;2.50;;
22332;SDS011;11334;36.986;-121.936;2022-07-29T08:12:02;3.88;;;2.50;;
22332;SDS011;11334;36.986;-121.936;2022-07-29T08:14:31;8.77;;;2.90;;
22332;SDS011;11334;36.986;-121.936;2022-07-29T08:16:58;8.63;;;2.50;;
22332;SDS011;11334;36.986;-121.936;2022-07-29T08:19:24;4.18;;;2.03;;
22332;SDS011;11334;36.986;-121.936;2022-07-29T08:21:50;6.35;;;2.88;;
22332;SDS011;11334;36.986;-121.936;2022-07-29T08:24:18;6.63;;;2.30;;
22332;SDS011;11334;36.986;-121.936;2022-07-29T08:27:03;5.55;;;2.42;;
22332;SDS011;11334;36.986;-121.936;2022-07-29T08:29:29;5.70;;;2.92;;
22332;SDS011;11334;36.986;-121.936;2022-07-29T08:31:56;6.30;;;2.80;;
22332;SDS011;11334;36.986;-121.936;2022-07-29T08:34:22;10.68;;;3.05;;
22332;SDS011;11334;36.986;-121.936;2022-07-29T08:36:48;5.43;;;2.72;;
22332;SDS011;11334;36.986;-121.936;2022-07-29T08:39:14;7.32;;;2.97;;
22332;SDS011;11334;36.986;-121.936;2022-07-29T08:41:40;10.13;;;2.88;;
22332;SDS011;11334;36.986;-121.936;2022-07-29T08:44:07;7.32;;;2.53;;
22332;SDS011;11334;36.986;-121.936;2022-07-29T08:46:37;8.70;;;2.90;;
22332;SDS011;11334;36.986;-121.936;2022-07-29T08:49:06;7.47;;;2.97;;
22332;SDS011;11334;36.986;-121.936;2022-07-29T08:51:33;11.75;;;3.47;;
22332;SDS011;11334;36.986;-121.936;2022-07-29T08:54:01;4.72;;;2.38;;
22332;SDS011;11334;36.986;-121.936;2022-07-29T08:56:28;8.32;;;3.35;;
22332;SDS011;11334;36.986;-121.936;2022-07-29T08:58:55;8.48;;;3.28;;
22332;SDS011;11334;36.986;-121.936;2022-07-29T09:01:24;7.13;;;3.17;;
22332;SDS011;11334;36.986;-121.936;2022-07-29T09:03:55;6.45;;;2.90;;
22332;SDS011;11334;36.986;-121.936;2022-07-29T09:06:24;5.95;;;3.00;;
22332;SDS011;11334;36.986;-121.936;2022-07-29T09:08:57;5.28;;;2.42;;
22332;SDS011;11334;36.986;-121.936;2022-07-29T09:11:25;4.30;;;2.67;;
22332;SDS011;11334;36.986;-121.936;2022-07-29T09:13:51;9.80;;;2.70;;
22332;SDS011;11334;36.986;-121.936;2022-07-29T09:16:18;5.20;;;2.78;;
22332;SDS011;11334;36.986;-121.936;2022-07-29T09:18:44;7.28;;;2.65;;
22332;SDS011;11334;36.986;-121.936;2022-07-29T09:21:12;10.25;;;2.65;;
22332;SDS011;11334;36.986;-121.936;2022-07-29T09:23:59;7.97;;;2.72;;
22332;SDS011;11334;36.986;-121.936;2022-07-29T09:26:29;7.57;;;2.63;;
22332;SDS011;11334;36.986;-121.936;2022-07-29T09:28:56;8.25;;;3.00;;
22332;SDS011;11334;36.986;-121.936;2022-07-29T09:31:42;7.05;;;2.85;;
22332;SDS011;11334;36.986;-121.936;2022-07-29T09:34:13;4.32;;;2.53;;
22332;SDS011;11334;36.986;-121.936;2022-07-29T09:36:42;8.80;;;3.10;;
22332;SDS011;11334;36.986;-121.936;2022-07-29T09:39:13;4.63;;;3.20;;
22332;SDS011;11334;36.986;-121.936;2022-07-29T09:41:45;7.85;;;3.08;;
22332;SDS011;11334;36.986;-121.936;2022-07-29T09:44:15;7.15;;;3.40;;
22332;SDS011;11334;36.986;-121.936;2022-07-29T09:49:32;6.78;;;3.08;;
22332;SDS011;11334;36.986;-121.936;2022-07-29T09:52:00;12.27;;;2.83;;
22332;SDS011;11334;36.986;-121.936;2022-07-29T09:54:26;7.38;;;2.30;;
22332;SDS011;11334;36.986;-121.936;2022-07-29T09:56:54;8.38;;;2.90;;
22332;SDS011;11334;36.986;-121.936;2022-07-29T09:59:20;8.05;;;2.67;;
22332;SDS011;11334;36.986;-121.936;2022-07-29T10:01:51;7.10;;;2.70;;
22332;SDS011;11334;36.986;-121.936;2022-07-29T10:04:19;7.32;;;2.95;;
22332;SDS011;11334;36.986;-121.936;2022-07-29T10:07:01;8.80;;;3.80;;
22332;SDS011;11334;36.986;-121.936;2022-07-29T10:09:30;10.63;;;3.10;;
22332;SDS011;11334;36.986;-121.936;2022-07-29T10:12:04;7.03;;;2.88;;
22332;SDS011;11334;36.986;-121.936;2022-07-29T10:14:36;9.65;;;2.58;;
22332;SDS011;11334;36.986;-121.936;2022-07-29T10:17:04;9.50;;;3.35;;
22332;SDS011;11334;36.986;-121.936;2022-07-29T10:19:31;8.55;;;3.55;;
22332;SDS011;11334;36.986;-121.936;2022-07-29T10:21:58;11.90;;;3.42;;
22332;SDS011;11334;36.986;-121.936;2022-07-29T10:24:26;11.07;;;3.60;;
22332;SDS011;11334;36.986;-121.936;2022-07-29T10:26:58;16.77;;;4.00;;
22332;SDS011;11334;36.986;-121.936;2022-07-29T10:29:26;9.60;;;3.72;;
22332;SDS011;11334;36.986;-121.936;2022-07-29T10:34:54;7.68;;;3.45;;
22332;SDS011;11334;36.986;-121.936;2022-07-29T10:43:06;10.25;;;4.05;;
22332;SDS011;11334;36.986;-121.936;2022-07-29T10:45:44;9.68;;;3.75;;
22332;SDS011;11334;36.986;-121.936;2022-07-29T10:48:12;13.95;;;4.47;;
22332;SDS011;11334;36.986;-121.936;2022-07-29T10:50:56;7.60;;;3.50;;
22332;SDS011;11334;36.986;-121.936;2022-07-29T11:01:49;7.20;;;3.78;;
22332;SDS011;11334;36.986;-121.936;2022-07-29T11:04:16;6.40;;;3.42;;
22332;SDS011;11334;36.986;-121.936;2022-07-29T11:07:11;9.82;;;3.53;;
22332;SDS011;11334;36.986;-121.936;2022-07-29T11:09:38;8.65;;;3.63;;
22332;SDS011;11334;36.986;-121.936;2022-07-29T11:12:45;8.45;;;3.42;;
22332;SDS011;11334;36.986;-121.936;2022-07-29T11:15:12;7.20;;;2.92;;
22332;SDS011;11334;36.986;-121.936;2022-07-29T11:20:32;7.30;;;2.90;;
22332;SDS011;11334;36.986;-121.936;2022-07-29T11:22:59;6.78;;;2.72;;
22332;SDS011;11334;36.986;-121.936;2022-07-29T11:25:25;7.47;;;3.20;;
22332;SDS011;11334;36.986;-121.936;2022-07-29T11:27:52;5.25;;;3.13;;
22332;SDS011;11334;36.986;-121.936;2022-07-29T11:30:52;6.85;;;3.03;;
22332;SDS011;11334;36.986;-121.936;2022-07-29T11:33:26;10.15;;;3.83;;
22332;SDS011;11334;36.986;-121.936;2022-07-29T11:36:07;5.43;;;2.95;;
22332;SDS011;11334;36.986;-121.936;2022-07-29T11:38:35;5.45;;;2.95;;
22332;SDS011;11334;36.986;-121.936;2022-07-29T11:43:47;6.82;;;2.92;;
22332;SDS011;11334;36.986;-121.936;2022-07-29T11:49:19;4.32;;;2.83;;
22332;SDS011;11334;36.986;-121.936;2022-07-29T11:51:52;5.88;;;2.97;;
22332;SDS011;11334;36.986;-121.936;2022-07-29T11:54:25;7.82;;;2.83;;
22332;SDS011;11334;36.986;-121.936;2022-07-29T11:56:58;9.43;;;3.67;;
22332;SDS011;11334;36.986;-121.936;2022-07-29T11:59:25;8.88;;;3.05;;
22332;SDS011;11334;36.986;-121.936;2022-07-29T12:01:55;6.28;;;2.97;;
22332;SDS011;11334;36.986;-121.936;2022-07-29T12:04:22;8.00;;;3.05;;
22332;SDS011;11334;36.986;-121.936;2022-07-29T12:06:55;7.95;;;3.22;;
22332;SDS011;11334;36.986;-121.936;2022-07-29T12:09:22;7.68;;;2.75;;
22332;SDS011;11334;36.986;-121.936;2022-07-29T12:11:58;9.10;;;3.25;;
22332;SDS011;11334;36.986;-121.936;2022-07-29T12:14:28;9.30;;;3.22;;
22332;SDS011;11334;36.986;-121.936;2022-07-29T12:16:55;7.72;;;3.20;;
22332;SDS011;11334;36.986;-121.936;2022-07-29T12:19:23;6.10;;;3.15;;
22332;SDS011;11334;36.986;-121.936;2022-07-29T12:21:50;10.00;;;3.50;;
22332;SDS011;11334;36.986;-121.936;2022-07-29T12:24:19;7.57;;;3.10;;
22332;SDS011;11334;36.986;-121.936;2022-07-29T12:27:04;5.57;;;3.08;;
22332;SDS011;11334;36.986;-121.936;2022-07-29T12:29:30;7.70;;;3.70;;
22332;SDS011;11334;36.986;-121.936;2022-07-29T12:31:56;8.90;;;3.53;;
22332;SDS011;11334;36.986;-121.936;2022-07-29T12:34:23;8.32;;;3.03;;
22332;SDS011;11334;36.986;-121.936;2022-07-29T12:36:52;13.35;;;3.55;;
22332;SDS011;11334;36.986;-121.936;2022-07-29T12:39:18;6.40;;;3.72;;
22332;SDS011;11334;36.986;-121.936;2022-07-29T12:41:45;11.20;;;3.63;;
22332;SDS011;11334;36.986;-121.936;2022-07-29T12:44:11;6.20;;;3.33;;
22332;SDS011;11334;36.986;-121.936;2022-07-29T12:46:37;11.05;;;3.97;;
22332;SDS011;11334;36.986;-121.936;2022-07-29T12:49:04;8.43;;;4.25;;
22332;SDS011;11334;36.986;-121.936;2022-07-29T12:51:37;10.50;;;4.30;;
22332;SDS011;11334;36.986;-121.936;2022-07-29T12:54:09;11.05;;;4.47;;
22332;SDS011;11334;36.986;-121.936;2022-07-29T12:56:37;12.55;;;5.10;;
22332;SDS011;11334;36.986;-121.936;2022-07-29T12:59:17;10.85;;;4.82;;
22332;SDS011;11334;36.986;-121.936;2022-07-29T13:01:45;9.43;;;4.10;;
22332;SDS011;11334;36.986;-121.936;2022-07-29T13:04:27;10.13;;;4.03;;
22332;SDS011;11334;36.986;-121.936;2022-07-29T13:07:04;12.30;;;4.20;;
22332;SDS011;11334;36.986;-121.936;2022-07-29T13:09:42;10.50;;;4.35;;
22332;SDS011;11334;36.986;-121.936;2022-07-29T13:12:13;8.52;;;4.32;;
22332;SDS011;11334;36.986;-121.936;2022-07-29T13:14:43;7.40;;;4.13;;
22332;SDS011;11334;36.986;-121.936;2022-07-29T13:17:15;8.10;;;3.47;;
22332;SDS011;11334;36.986;-121.936;2022-07-29T13:22:12;7.30;;;3.80;;
22332;SDS011;11334;36.986;-121.936;2022-07-29T13:27:33;8.52;;;3.63;;
22332;SDS011;11334;36.986;-121.936;2022-07-29T13:30:03;5.65;;;2.72;;
22332;SDS011;11334;36.986;-121.936;2022-07-29T13:32:32;6.40;;;2.85;;
22332;SDS011;11334;36.986;-121.936;2022-07-29T13:35:00;8.57;;;3.08;;
22332;SDS011;11334;36.986;-121.936;2022-07-29T13:37:28;8.13;;;3.42;;
22332;SDS011;11334;36.986;-121.936;2022-07-29T13:39:55;9.77;;;3.28;;
22332;SDS011;11334;36.986;-121.936;2022-07-29T13:42:22;8.70;;;3.28;;
22332;SDS011;11334;36.986;-121.936;2022-07-29T13:44:49;8.75;;;3.55;;
22332;SDS011;11334;36.986;-121.936;2022-07-29T13:47:17;12.48;;;3.78;;
22332;SDS011;11334;36.986;-121.936;2022-07-29T13:49:44;9.90;;;3.90;;
22332;SDS011;11334;36.986;-121.936;2022-07-29T13:52:11;10.60;;;3.92;;
22332;SDS011;11334;36.986;-121.936;2022-07-29T13:54:38;17.73;;;3.83;;
22332;SDS011;11334;36.986;-121.936;2022-07-29T13:57:04;7.47;;;3.72;;
22332;SDS011;11334;36.986;-121.936;2022-07-29T13:59:30;10.48;;;3.95;;
22332;SDS011;11334;36.986;-121.936;2022-07-29T14:01:57;10.18;;;3.60;;
22332;SDS011;11334;36.986;-121.936;2022-07-29T14:04:23;5.90;;;3.63;;
22332;SDS011;11334;36.986;-121.936;2022-07-29T14:06:49;15.35;;;4.10;;
22332;SDS011;11334;36.986;-121.936;2022-07-29T14:09:16;7.72;;;3.97;;
22332;SDS011;11334;36.986;-121.936;2022-07-29T14:11:43;9.68;;;3.63;;
22332;SDS011;11334;36.986;-121.936;2022-07-29T14:14:09;7.05;;;3.38;;
22332;SDS011;11334;36.986;-121.936;2022-07-29T14:16:35;11.93;;;3.67;;
22332;SDS011;11334;36.986;-121.936;2022-07-29T14:19:02;7.82;;;3.47;;
22332;SDS011;11334;36.986;-121.936;2022-07-29T14:21:28;8.15;;;3.58;;
22332;SDS011;11334;36.986;-121.936;2022-07-29T14:23:55;14.07;;;3.92;;
22332;SDS011;11334;36.986;-121.936;2022-07-29T14:26:22;10.05;;;4.53;;
22332;SDS011;11334;36.986;-121.936;2022-07-29T14:28:48;8.02;;;3.58;;
22332;SDS011;11334;36.986;-121.936;2022-07-29T14:31:15;5.15;;;3.55;;
22332;SDS011;11334;36.986;-121.936;2022-07-29T14:33:41;6.40;;;3.42;;
22332;SDS011;11334;36.986;-121.936;2022-07-29T14:36:08;6.40;;;3.35;;
22332;SDS011;11334;36.986;-121.936;2022-07-29T14:38:34;10.88;;;4.40;;
22332;SDS011;11334;36.986;-121.936;2022-07-29T14:41:02;9.18;;;3.92;;
22332;SDS011;11334;36.986;-121.936;2022-07-29T14:43:29;9.73;;;5.10;;
22332;SDS011;11334;36.986;-121.936;2022-07-29T14:45:55;7.25;;;4.18;;
22332;SDS011;11334;36.986;-121.936;2022-07-29T14:48:21;13.10;;;4.55;;
22332;SDS011;11334;36.986;-121.936;2022-07-29T14:50:48;7.80;;;4.28;;
22332;SDS011;11334;36.986;-121.936;2022-07-29T14:53:14;10.93;;;4.25;;
22332;SDS011;11334;36.986;-121.936;2022-07-29T14:55:40;12.80;;;4.60;;
22332;SDS011;11334;36.986;-121.936;2022-07-29T14:58:07;6.03;;;4.03;;
22332;SDS011;11334;36.986;-121.936;2022-07-29T15:00:34;7.40;;;4.47;;
22332;SDS011;11334;36.986;-121.936;2022-07-29T15:03:02;18.05;;;4.63;;
22332;SDS011;11334;36.986;-121.936;2022-07-29T15:05:32;8.73;;;4.03;;